createdAt,value
2023-01-01T00:01:22.110Z,8.75
2023-01-01T00:03:55.368Z,7.35
2023-01-01T00:06:28.149Z,5.88
2023-01-01T00:09:15.557Z,5.57
2023-01-01T00:11:50.011Z,5.22
2023-01-01T00:14:25.078Z,4.45
2023-01-01T00:17:00.542Z,5.00
2023-01-01T00:19:35.736Z,4.32
2023-01-01T00:22:44.060Z,3.30
2023-01-01T00:25:09.027Z,3.63
2023-01-01T00:27:44.213Z,3.20
2023-01-01T00:30:18.060Z,3.97
2023-01-01T00:32:56.269Z,3.35
2023-01-01T00:35:31.098Z,4.25
2023-01-01T00:38:04.854Z,3.10
2023-01-01T00:40:42.920Z,3.22
2023-01-01T00:43:17.856Z,2.70
2023-01-01T00:45:55.991Z,3.17
2023-01-01T00:48:31.954Z,2.50
2023-01-01T00:53:40.930Z,2.73
2023-01-01T00:56:19.236Z,2.80
2023-01-01T00:59:00.962Z,2.65
2023-01-01T01:01:36.739Z,2.00
2023-01-01T01:04:11.606Z,2.23
2023-01-01T01:06:46.178Z,2.47
2023-01-01T01:09:20.729Z,2.63
2023-01-01T01:12:18.492Z,2.40
2023-01-01T01:14:53.438Z,2.30
2023-01-01T01:17:27.545Z,1.70
2023-01-01T01:20:02.007Z,1.75
2023-01-01T01:22:37.879Z,2.20
2023-01-01T01:27:51.012Z,2.20
2023-01-01T01:30:21.899Z,1.80
2023-01-01T01:32:56.707Z,1.60
2023-01-01T01:35:31.110Z,1.55
2023-01-01T01:38:05.750Z,1.55
2023-01-01T01:40:40.071Z,1.80
2023-01-01T01:43:23.464Z,1.53
2023-01-01T01:45:58.410Z,1.90
2023-01-01T01:48:32.968Z,1.45
2023-01-01T01:51:08.392Z,1.70
2023-01-01T01:53:45.264Z,3.22
2023-01-01T01:56:23.100Z,1.70
2023-01-01T01:59:00.727Z,1.52
2023-01-01T02:01:36.563Z,1.53
2023-01-01T02:06:44.423Z,1.65
2023-01-01T02:09:18.554Z,1.48
2023-01-01T02:11:52.845Z,1.92
2023-01-01T02:14:29.725Z,1.77
2023-01-01T02:17:06.496Z,1.85
2023-01-01T02:19:47.132Z,2.05
2023-01-01T02:22:30.757Z,1.70
2023-01-01T02:25:13.645Z,1.90
2023-01-01T02:27:51.852Z,1.55
2023-01-01T02:30:28.754Z,1.70
2023-01-01T02:33:03.638Z,1.80
2023-01-01T02:35:38.936Z,1.40
2023-01-01T02:38:14.740Z,1.50
2023-01-01T02:40:52.030Z,1.38
2023-01-01T02:43:26.506Z,1.20
2023-01-01T02:46:04.203Z,1.40
2023-01-01T02:48:47.185Z,1.63
2023-01-01T02:51:24.675Z,1.50
2023-01-01T02:53:56.695Z,1.45
2023-01-01T02:56:36.735Z,1.35
2023-01-01T02:59:36.459Z,1.77
2023-01-01T03:02:19.817Z,1.30
2023-01-01T03:05:00.719Z,1.55
2023-01-01T03:07:39.321Z,1.30
2023-01-01T03:10:15.513Z,1.55
2023-01-01T03:12:51.009Z,1.70
2023-01-01T03:15:27.922Z,1.70
2023-01-01T03:18:08.613Z,1.55
2023-01-01T03:20:43.295Z,1.30
2023-01-01T03:23:19.327Z,1.80
2023-01-01T03:25:55.095Z,1.52
2023-01-01T03:28:31.764Z,1.65
2023-01-01T03:31:07.952Z,1.83
2023-01-01T03:33:44.548Z,1.87
2023-01-01T03:36:20.176Z,2.20
2023-01-01T03:38:55.812Z,2.00
2023-01-01T03:41:32.717Z,2.08
2023-01-01T03:44:06.801Z,2.00
2023-01-01T03:46:41.122Z,2.33
2023-01-01T03:49:18.354Z,2.03
2023-01-01T03:52:08.835Z,2.03
2023-01-01T03:54:47.948Z,2.40
2023-01-01T03:57:26.014Z,2.20
2023-01-01T04:00:03.550Z,2.67
2023-01-01T04:02:48.953Z,2.30
2023-01-01T04:05:26.195Z,2.60
2023-01-01T04:08:00.779Z,2.13
2023-01-01T04:10:36.520Z,2.50
2023-01-01T04:13:11.172Z,2.50
2023-01-01T04:15:45.748Z,2.10
2023-01-01T04:18:19.460Z,2.25
2023-01-01T04:20:57.021Z,2.25
2023-01-01T04:23:32.150Z,2.30
2023-01-01T04:26:06.937Z,2.28
2023-01-01T04:28:42.585Z,2.58
2023-01-01T04:31:17.578Z,2.22
2023-01-01T04:33:52.617Z,2.10
2023-01-01T04:36:30.428Z,2.20
2023-01-01T04:39:05.889Z,2.42
2023-01-01T04:41:39.458Z,1.90
2023-01-01T04:44:12.604Z,2.03
2023-01-01T04:46:47.146Z,1.90
2023-01-01T04:49:21.603Z,2.15
2023-01-01T04:51:59.231Z,2.08
2023-01-01T04:54:33.621Z,2.47
2023-01-01T04:57:07.610Z,2.30
2023-01-01T04:59:41.717Z,2.35
2023-01-01T05:02:15.637Z,1.58
2023-01-01T05:04:47.817Z,1.98
2023-01-01T05:07:24.859Z,2.03
2023-01-01T05:09:58.966Z,2.00
2023-01-01T05:12:34.474Z,2.38
2023-01-01T05:15:10.425Z,1.98
2023-01-01T05:20:19.669Z,1.80
2023-01-01T05:22:57.480Z,2.43
2023-01-01T05:25:32.486Z,1.90
2023-01-01T05:28:07.163Z,2.27
2023-01-01T05:30:43.297Z,2.10
2023-01-01T05:33:18.386Z,2.03
2023-01-01T05:35:56.953Z,2.20
2023-01-01T05:38:34.852Z,2.20
2023-01-01T05:41:09.280Z,2.17
2023-01-01T05:43:43.995Z,2.00
2023-01-01T05:46:16.751Z,2.38
2023-01-01T05:48:50.981Z,2.13
2023-01-01T05:51:27.334Z,2.30
2023-01-01T05:54:04.230Z,2.10
2023-01-01T05:56:37.829Z,2.60
2023-01-01T05:59:13.204Z,2.20
2023-01-01T06:01:47.621Z,1.80
2023-01-01T06:04:22.985Z,2.10
2023-01-01T06:06:55.372Z,2.17
2023-01-01T06:09:32.945Z,2.20
2023-01-01T06:12:09.660Z,2.27
2023-01-01T06:14:44.512Z,2.38
2023-01-01T06:17:19.378Z,2.42
2023-01-01T06:19:54.443Z,2.05
2023-01-01T06:22:29.022Z,2.20
2023-01-01T06:25:07.435Z,2.10
2023-01-01T06:27:42.060Z,2.33
2023-01-01T06:30:17.747Z,2.13
2023-01-01T06:32:52.942Z,2.00
2023-01-01T06:35:28.451Z,1.80
2023-01-01T06:38:04.067Z,1.98
2023-01-01T06:40:42.216Z,2.08
2023-01-01T06:43:16.508Z,2.63
2023-01-01T06:45:51.501Z,1.83
2023-01-01T06:48:26.517Z,2.07
2023-01-01T06:51:01.441Z,2.25
2023-01-01T06:53:36.470Z,2.27
2023-01-01T06:56:13.953Z,1.83
2023-01-01T06:58:49.673Z,1.70
2023-01-01T07:01:24.969Z,2.35
2023-01-01T07:04:00.559Z,2.35
2023-01-01T07:06:35.873Z,2.38
2023-01-01T07:09:10.430Z,2.30
2023-01-01T07:11:49.156Z,2.05
2023-01-01T07:14:24.597Z,2.28
2023-01-01T07:16:59.920Z,1.88
2023-01-01T07:19:33.943Z,2.35
2023-01-01T07:22:11.165Z,2.45
2023-01-01T07:24:46.879Z,2.08
2023-01-01T07:27:23.498Z,1.75
2023-01-01T07:29:58.883Z,1.80
2023-01-01T07:32:33.082Z,1.95
2023-01-01T07:35:10.799Z,2.20
2023-01-01T07:37:46.429Z,2.17
2023-01-01T07:40:20.918Z,1.92
2023-01-01T07:42:55.412Z,2.15
2023-01-01T07:45:32.735Z,1.65
2023-01-01T07:48:04.066Z,2.40
2023-01-01T07:50:40.394Z,1.98
2023-01-01T07:53:14.893Z,2.13
2023-01-01T07:55:49.155Z,2.00
2023-01-01T07:58:26.811Z,2.20
2023-01-01T08:01:04.813Z,2.53
2023-01-01T08:03:39.939Z,2.00
2023-01-01T08:06:14.867Z,2.20
2023-01-01T08:08:50.294Z,2.00
2023-01-01T08:11:26.022Z,2.10
2023-01-01T08:14:00.929Z,2.63
2023-01-01T08:16:40.236Z,2.15
2023-01-01T08:19:15.437Z,2.00
2023-01-01T08:21:50.556Z,2.40
2023-01-01T08:24:26.046Z,2.03
2023-01-01T08:27:01.995Z,1.83
2023-01-01T08:32:11.014Z,2.00
2023-01-01T08:34:49.351Z,2.27
2023-01-01T08:37:26.388Z,2.10
2023-01-01T08:40:01.729Z,2.20
2023-01-01T08:42:39.044Z,1.80
2023-01-01T08:45:16.397Z,2.10
2023-01-01T08:47:51.109Z,1.90
2023-01-01T08:50:29.783Z,2.15
2023-01-01T08:53:04.968Z,2.03
2023-01-01T08:55:39.428Z,1.80
2023-01-01T08:58:15.111Z,1.98
2023-01-01T09:00:46.015Z,2.50
2023-01-01T09:03:23.153Z,1.85
2023-01-01T09:06:04.663Z,2.20
2023-01-01T09:08:43.386Z,2.35
2023-01-01T09:11:26.448Z,2.30
2023-01-01T09:14:02.288Z,2.28
2023-01-01T09:19:20.119Z,2.40
2023-01-01T09:21:59.285Z,1.70
2023-01-01T09:24:35.500Z,1.80
2023-01-01T09:27:13.029Z,1.90
2023-01-01T09:29:49.720Z,2.80
2023-01-01T09:32:26.356Z,2.45
2023-01-01T09:35:01.751Z,2.30
2023-01-01T09:37:40.957Z,2.15
2023-01-01T09:40:18.892Z,2.50
2023-01-01T09:42:56.278Z,2.33
2023-01-01T09:45:33.998Z,2.00
2023-01-01T09:48:13.803Z,2.00
2023-01-01T09:50:50.280Z,2.28
2023-01-01T09:53:38.453Z,1.90
2023-01-01T09:56:14.462Z,1.70
2023-01-01T09:58:50.938Z,1.80
2023-01-01T10:01:37.469Z,2.05
2023-01-01T10:04:26.299Z,2.20
2023-01-01T10:07:07.145Z,2.13
2023-01-01T10:09:48.090Z,2.00
2023-01-01T10:12:26.949Z,1.80
2023-01-01T10:15:06.329Z,1.55
2023-01-01T10:17:44.063Z,1.70
2023-01-01T10:20:24.337Z,2.07
2023-01-01T10:23:03.541Z,2.05
2023-01-01T10:25:41.677Z,1.90
2023-01-01T10:28:18.448Z,2.20
2023-01-01T10:30:55.883Z,1.80
2023-01-01T10:33:36.268Z,1.83
2023-01-01T10:36:14.427Z,2.30
2023-01-01T10:38:51.085Z,1.90
2023-01-01T10:41:33.507Z,2.00
2023-01-01T10:44:09.776Z,1.83
2023-01-01T10:46:47.563Z,2.00
2023-01-01T10:49:22.694Z,2.27
2023-01-01T10:51:59.726Z,2.03
2023-01-01T10:54:37.248Z,2.45
2023-01-01T10:57:24.953Z,2.30
2023-01-01T10:59:59.871Z,2.38
2023-01-01T11:02:38.861Z,2.72
2023-01-01T11:05:22.230Z,2.80
2023-01-01T11:07:59.700Z,2.42
2023-01-01T11:10:36.964Z,2.65
2023-01-01T11:13:20.354Z,2.55
2023-01-01T11:15:56.142Z,2.35
2023-01-01T11:18:36.556Z,2.80
2023-01-01T11:21:13.017Z,2.70
2023-01-01T11:23:49.445Z,2.70
2023-01-01T11:29:06.724Z,2.75
2023-01-01T11:31:37.008Z,2.70
2023-01-01T11:34:24.694Z,2.70
2023-01-01T11:37:11.279Z,2.78
2023-01-01T11:39:46.031Z,2.33
2023-01-01T11:42:21.974Z,2.50
2023-01-01T11:45:00.649Z,2.70
2023-01-01T11:47:38.799Z,3.07
2023-01-01T11:50:22.893Z,3.10
2023-01-01T11:52:58.711Z,2.28
2023-01-01T11:58:19.829Z,2.77
2023-01-01T12:00:58.482Z,2.30
2023-01-01T12:03:35.692Z,2.90
2023-01-01T12:06:10.117Z,2.95
2023-01-01T12:08:48.652Z,2.65
2023-01-01T12:11:27.524Z,2.67
2023-01-01T12:14:06.566Z,2.65
2023-01-01T12:16:49.140Z,2.47
2023-01-01T12:19:25.579Z,3.00
2023-01-01T12:22:02.790Z,3.45
2023-01-01T12:24:37.687Z,2.75
2023-01-01T12:27:21.010Z,2.75
2023-01-01T12:30:04.616Z,3.00
2023-01-01T12:33:07.867Z,2.40
2023-01-01T12:36:11.051Z,2.17
2023-01-01T12:39:30.480Z,2.80
2023-01-01T12:42:07.945Z,3.10
2023-01-01T12:44:46.285Z,2.30
2023-01-01T12:47:28.324Z,2.80
2023-01-01T12:50:11.694Z,2.37
2023-01-01T12:52:54.059Z,3.00
2023-01-01T12:55:51.070Z,2.65
2023-01-01T12:58:30.215Z,2.35
2023-01-01T13:01:09.453Z,3.08
2023-01-01T13:03:51.613Z,2.80
2023-01-01T13:06:37.757Z,3.30
2023-01-01T13:09:18.393Z,3.93
2023-01-01T13:11:56.867Z,2.90
2023-01-01T13:14:31.538Z,2.80
2023-01-01T13:17:06.980Z,2.77
2023-01-01T13:19:42.803Z,3.20
2023-01-01T13:22:45.623Z,2.70
2023-01-01T13:25:25.122Z,3.13
2023-01-01T13:28:08.497Z,3.00
2023-01-01T13:30:54.259Z,3.38
2023-01-01T13:33:31.409Z,3.30
2023-01-01T13:36:33.648Z,3.22
2023-01-01T13:39:12.790Z,3.50
2023-01-01T13:41:47.668Z,3.10
2023-01-01T13:44:23.559Z,3.20
2023-01-01T13:49:47.460Z,3.35
2023-01-01T13:52:39.530Z,3.20
2023-01-01T13:55:43.966Z,2.70
2023-01-01T13:58:16.801Z,3.40
2023-01-01T14:01:05.376Z,3.50
2023-01-01T14:03:46.891Z,4.03
2023-01-01T14:06:26.685Z,4.55
2023-01-01T14:09:06.059Z,3.90
2023-01-01T14:11:42.684Z,4.13
2023-01-01T14:14:24.739Z,3.45
2023-01-01T14:17:03.325Z,4.03
2023-01-01T14:19:38.390Z,3.90
2023-01-01T14:22:15.492Z,3.33
2023-01-01T14:24:50.677Z,4.07
2023-01-01T14:27:25.106Z,3.70
2023-01-01T14:30:01.602Z,3.97
2023-01-01T14:32:38.903Z,3.13
2023-01-01T14:35:19.077Z,3.80
2023-01-01T14:37:54.844Z,2.95
2023-01-01T14:40:33.317Z,3.93
2023-01-01T14:43:09.699Z,3.90
2023-01-01T14:45:46.991Z,3.47
2023-01-01T14:48:25.888Z,3.90
2023-01-01T14:51:02.944Z,3.88
2023-01-01T14:53:36.235Z,4.10
2023-01-01T14:56:11.185Z,3.83
2023-01-01T14:58:47.205Z,4.00
2023-01-01T15:01:26.265Z,4.45
2023-01-01T15:04:04.995Z,4.35
2023-01-01T15:06:43.872Z,4.00
2023-01-01T15:09:18.622Z,4.40
2023-01-01T15:11:55.103Z,4.22
2023-01-01T15:14:34.383Z,4.45
2023-01-01T15:17:10.810Z,5.00
2023-01-01T15:19:48.549Z,4.43
2023-01-01T15:22:27.649Z,4.05
2023-01-01T15:24:58.075Z,4.72
2023-01-01T15:27:34.079Z,4.03
2023-01-01T15:30:13.867Z,3.92
2023-01-01T15:32:47.065Z,3.80
2023-01-01T15:35:31.391Z,4.40
2023-01-01T15:38:07.225Z,4.10
2023-01-01T15:40:45.601Z,4.47
2023-01-01T15:43:25.388Z,3.78
2023-01-01T15:48:37.767Z,4.15
2023-01-01T15:51:19.393Z,4.55
2023-01-01T15:53:56.945Z,4.68
2023-01-01T15:56:31.994Z,5.40
2023-01-01T15:59:09.782Z,5.43
2023-01-01T16:01:48.348Z,5.43
2023-01-01T16:04:28.744Z,4.30
2023-01-01T16:07:07.516Z,5.05
2023-01-01T16:09:44.913Z,4.90
2023-01-01T16:12:24.347Z,5.10
2023-01-01T16:15:01.473Z,5.00
2023-01-01T16:17:36.343Z,4.35
2023-01-01T16:20:13.755Z,5.20
2023-01-01T16:22:51.840Z,4.97
2023-01-01T16:25:29.136Z,5.07
2023-01-01T16:28:06.280Z,5.13
2023-01-01T16:30:42.239Z,6.00
2023-01-01T16:33:19.373Z,4.95
2023-01-01T16:35:55.446Z,5.03
2023-01-01T16:38:34.110Z,5.40
2023-01-01T16:41:09.674Z,4.80
2023-01-01T16:43:44.956Z,4.55
2023-01-01T16:46:20.377Z,5.10
2023-01-01T16:48:55.219Z,4.28
2023-01-01T16:51:32.152Z,4.15
2023-01-01T16:54:11.024Z,4.22
2023-01-01T16:56:46.414Z,5.60
2023-01-01T16:59:23.348Z,5.03
2023-01-01T17:01:58.755Z,4.90
2023-01-01T17:04:35.749Z,5.25
2023-01-01T17:07:12.246Z,4.40
2023-01-01T17:09:52.009Z,5.95
2023-01-01T17:12:26.885Z,4.68
2023-01-01T17:15:02.741Z,4.43
2023-01-01T17:20:14.446Z,5.00
2023-01-01T17:22:49.890Z,4.88
2023-01-01T17:25:28.084Z,4.63
2023-01-01T17:28:03.075Z,5.50
2023-01-01T17:30:38.816Z,4.95
2023-01-01T17:33:14.615Z,5.05
2023-01-01T17:35:50.817Z,5.03
2023-01-01T17:38:25.907Z,5.90
2023-01-01T17:41:09.039Z,5.40
2023-01-01T17:43:44.725Z,4.85
2023-01-01T17:46:21.130Z,5.20
2023-01-01T17:48:55.591Z,4.88
2023-01-01T17:54:10.645Z,5.03
2023-01-01T17:56:48.394Z,5.18
2023-01-01T17:59:25.033Z,5.30
2023-01-01T18:01:59.470Z,5.60
2023-01-01T18:04:35.712Z,5.35
2023-01-01T18:07:10.710Z,5.05
2023-01-01T18:09:45.701Z,4.63
2023-01-01T18:12:24.197Z,5.82
2023-01-01T18:14:59.911Z,4.60
2023-01-01T18:17:36.180Z,4.18
2023-01-01T18:20:12.711Z,5.22
2023-01-01T18:22:48.387Z,4.47
2023-01-01T18:25:24.182Z,5.27
2023-01-01T18:28:03.821Z,5.47
2023-01-01T18:30:39.536Z,4.88
2023-01-01T18:33:14.816Z,4.63
2023-01-01T18:35:50.498Z,4.72
2023-01-01T18:38:26.494Z,4.60
2023-01-01T18:41:04.432Z,4.00
2023-01-01T18:43:42.842Z,5.00
2023-01-01T18:46:17.245Z,4.95
2023-01-01T18:48:57.123Z,5.68
2023-01-01T18:51:35.260Z,4.88
2023-01-01T18:54:14.855Z,5.18
2023-01-01T18:56:50.391Z,4.40
2023-01-01T18:59:28.865Z,4.35
2023-01-01T19:02:04.154Z,5.30
2023-01-01T19:04:39.530Z,4.57
2023-01-01T19:07:15.174Z,5.47
2023-01-01T19:09:55.611Z,4.90
2023-01-01T19:12:33.912Z,5.33
2023-01-01T19:15:20.327Z,5.23
2023-01-01T19:17:57.797Z,5.13
2023-01-01T19:20:32.728Z,4.95
2023-01-01T19:23:13.421Z,4.60
2023-01-01T19:25:48.797Z,5.20
2023-01-01T19:28:34.156Z,5.40
2023-01-01T19:31:15.416Z,5.57
2023-01-01T19:33:49.500Z,5.05
2023-01-01T19:36:25.982Z,5.40
2023-01-01T19:39:01.350Z,5.05
2023-01-01T19:41:38.062Z,5.43
2023-01-01T19:44:23.012Z,5.10
2023-01-01T19:49:38.318Z,5.50
2023-01-01T19:52:14.100Z,4.75
2023-01-01T19:54:51.239Z,5.38
2023-01-01T19:57:27.675Z,5.07
2023-01-01T20:00:03.222Z,5.57
2023-01-01T20:02:52.046Z,5.55
2023-01-01T20:05:34.862Z,4.80
2023-01-01T20:08:11.622Z,4.60
2023-01-01T20:10:47.707Z,4.93
2023-01-01T20:13:25.745Z,5.80
2023-01-01T20:16:02.300Z,6.07
2023-01-01T20:18:43.032Z,5.38
2023-01-01T20:21:32.225Z,5.57
2023-01-01T20:24:11.215Z,6.22
2023-01-01T20:26:47.061Z,5.80
2023-01-01T20:29:24.676Z,5.60
2023-01-01T20:32:00.307Z,5.25
2023-01-01T20:34:39.071Z,4.65
2023-01-01T20:37:26.141Z,5.55
2023-01-01T20:40:02.116Z,5.38
2023-01-01T20:45:14.426Z,5.03
2023-01-01T20:47:51.387Z,5.47
2023-01-01T20:50:30.069Z,6.10
2023-01-01T20:53:06.257Z,7.45
2023-01-01T20:55:42.258Z,7.00
2023-01-01T20:58:18.733Z,5.95
2023-01-01T21:00:53.319Z,7.35
2023-01-01T21:03:28.412Z,6.40
2023-01-01T21:06:07.121Z,6.27
2023-01-01T21:08:41.352Z,6.85
2023-01-01T21:11:16.457Z,7.00
2023-01-01T21:13:53.177Z,8.33
2023-01-01T21:16:30.800Z,7.65
2023-01-01T21:19:07.202Z,8.05
2023-01-01T21:21:48.032Z,14.33
2023-01-01T21:24:27.964Z,22.08
2023-01-01T21:27:05.191Z,17.60
2023-01-01T21:29:40.697Z,13.35
2023-01-01T21:32:23.360Z,19.45
2023-01-01T21:34:59.623Z,12.90
2023-01-01T21:37:52.055Z,35.87
2023-01-01T21:40:35.382Z,43.67
2023-01-01T21:43:31.866Z,26.52
2023-01-01T21:46:23.734Z,12.75
2023-01-01T21:49:00.605Z,12.23
2023-01-01T21:51:41.186Z,11.23
2023-01-01T21:54:27.222Z,11.48
2023-01-01T21:57:03.265Z,12.00
2023-01-01T22:02:34.188Z,12.73
2023-01-01T22:05:37.701Z,11.13
2023-01-01T22:08:27.291Z,10.02
2023-01-01T22:10:58.238Z,10.30
2023-01-01T22:13:36.218Z,9.50
2023-01-01T22:16:15.334Z,12.20
2023-01-01T22:18:51.039Z,11.83
2023-01-01T22:21:25.591Z,10.65
2023-01-01T22:24:01.880Z,11.95
2023-01-01T22:26:36.357Z,11.40
2023-01-01T22:29:28.048Z,11.65
2023-01-01T22:32:04.836Z,10.45
2023-01-01T22:34:42.308Z,12.00
2023-01-01T22:37:21.766Z,12.70
2023-01-01T22:39:57.153Z,13.48
2023-01-01T22:42:37.190Z,11.35
2023-01-01T22:45:19.218Z,12.32
2023-01-01T22:47:55.300Z,12.65
2023-01-01T22:50:31.872Z,10.45
2023-01-01T22:53:07.184Z,12.60
2023-01-01T22:55:46.160Z,12.50
2023-01-01T22:58:21.817Z,11.20
2023-01-01T23:00:59.432Z,11.70
2023-01-01T23:03:35.481Z,11.00
2023-01-01T23:06:13.827Z,13.00
2023-01-01T23:08:49.215Z,12.23
2023-01-01T23:11:25.980Z,13.07
2023-01-01T23:14:12.674Z,11.30
2023-01-01T23:16:50.942Z,11.60
2023-01-01T23:19:25.922Z,14.30
2023-01-01T23:22:00.480Z,14.82
2023-01-01T23:24:37.234Z,11.30
2023-01-01T23:27:15.081Z,11.75
2023-01-01T23:29:50.182Z,11.38
2023-01-01T23:32:27.647Z,10.80
2023-01-01T23:35:02.918Z,11.45
2023-01-01T23:37:38.273Z,12.87
2023-01-01T23:40:15.155Z,11.95
2023-01-01T23:42:50.178Z,10.20
2023-01-01T23:45:25.282Z,11.43
2023-01-01T23:48:01.048Z,10.85
2023-01-01T23:50:35.147Z,10.15
2023-01-01T23:53:10.338Z,10.07
2023-01-01T23:55:46.369Z,9.53
